sensor_id;sensor_type;location;lat;lon;timestamp;P1;durP1;ratioP1;P2;durP2;ratioP2
42246;SDS011;27913;42.722;23.268;2022-11-11T00:01:10;28.50;;;14.00;;
42246;SDS011;27913;42.722;23.268;2022-11-11T00:03:41;28.50;;;13.63;;
42246;SDS011;27913;42.722;23.268;2022-11-11T00:06:16;29.70;;;13.27;;
42246;SDS011;27913;42.722;23.268;2022-11-11T00:08:41;32.50;;;13.27;;
42246;SDS011;27913;42.722;23.268;2022-11-11T00:11:08;25.83;;;12.07;;
42246;SDS011;27913;42.722;23.268;2022-11-11T00:13:35;24.73;;;12.00;;
42246;SDS011;27913;42.722;23.268;2022-11-11T00:16:20;24.77;;;12.10;;
42246;SDS011;27913;42.722;23.268;2022-11-11T00:18:45;23.50;;;12.15;;
42246;SDS011;27913;42.722;23.268;2022-11-11T00:21:31;29.20;;;14.23;;
42246;SDS011;27913;42.722;23.268;2022-11-11T00:27:07;25.98;;;11.55;;
42246;SDS011;27913;42.722;23.268;2022-11-11T00:29:33;27.30;;;12.85;;
42246;SDS011;27913;42.722;23.268;2022-11-11T00:31:59;23.63;;;11.63;;
42246;SDS011;27913;42.722;23.268;2022-11-11T00:34:43;26.75;;;13.02;;
42246;SDS011;27913;42.722;23.268;2022-11-11T00:37:29;29.10;;;11.25;;
42246;SDS011;27913;42.722;23.268;2022-11-11T00:39:54;20.58;;;10.77;;
42246;SDS011;27913;42.722;23.268;2022-11-11T00:42:20;26.42;;;11.15;;
42246;SDS011;27913;42.722;23.268;2022-11-11T00:44:45;31.08;;;13.93;;
42246;SDS011;27913;42.722;23.268;2022-11-11T00:47:11;27.88;;;12.73;;
42246;SDS011;27913;42.722;23.268;2022-11-11T00:49:55;31.48;;;13.05;;
42246;SDS011;27913;42.722;23.268;2022-11-11T00:52:39;29.27;;;12.40;;
42246;SDS011;27913;42.722;23.268;2022-11-11T00:55:04;26.70;;;12.00;;
42246;SDS011;27913;42.722;23.268;2022-11-11T00:57:31;28.15;;;12.13;;
42246;SDS011;27913;42.722;23.268;2022-11-11T00:59:56;26.52;;;11.52;;
42246;SDS011;27913;42.722;23.268;2022-11-11T01:04:57;25.70;;;12.20;;
42246;SDS011;27913;42.722;23.268;2022-11-11T01:07:23;25.55;;;12.20;;
42246;SDS011;27913;42.722;23.268;2022-11-11T01:09:49;29.88;;;13.65;;
42246;SDS011;27913;42.722;23.268;2022-11-11T01:12:14;28.55;;;12.80;;
42246;SDS011;27913;42.722;23.268;2022-11-11T01:14:40;22.60;;;11.20;;
42246;SDS011;27913;42.722;23.268;2022-11-11T01:17:06;31.15;;;13.70;;
42246;SDS011;27913;42.722;23.268;2022-11-11T01:19:33;39.00;;;15.68;;
42246;SDS011;27913;42.722;23.268;2022-11-11T01:21:59;31.77;;;15.60;;
42246;SDS011;27913;42.722;23.268;2022-11-11T01:24:24;30.58;;;14.60;;
42246;SDS011;27913;42.722;23.268;2022-11-11T01:26:50;35.17;;;16.02;;
42246;SDS011;27913;42.722;23.268;2022-11-11T01:29:16;35.47;;;16.63;;
42246;SDS011;27913;42.722;23.268;2022-11-11T01:31:41;33.17;;;16.38;;
42246;SDS011;27913;42.722;23.268;2022-11-11T01:34:07;33.55;;;16.90;;
42246;SDS011;27913;42.722;23.268;2022-11-11T01:36:32;29.70;;;14.32;;
42246;SDS011;27913;42.722;23.268;2022-11-11T01:38:58;33.47;;;16.13;;
42246;SDS011;27913;42.722;23.268;2022-11-11T01:41:26;35.97;;;15.70;;
42246;SDS011;27913;42.722;23.268;2022-11-11T01:43:57;36.53;;;17.45;;
42246;SDS011;27913;42.722;23.268;2022-11-11T01:46:36;35.35;;;16.77;;
42246;SDS011;27913;42.722;23.268;2022-11-11T01:49:49;30.95;;;15.50;;
42246;SDS011;27913;42.722;23.268;2022-11-11T01:55:08;35.53;;;16.13;;
42246;SDS011;27913;42.722;23.268;2022-11-11T01:57:38;33.42;;;16.77;;
42246;SDS011;27913;42.722;23.268;2022-11-11T02:00:10;37.80;;;17.90;;
42246;SDS011;27913;42.722;23.268;2022-11-11T02:02:40;38.45;;;17.52;;
42246;SDS011;27913;42.722;23.268;2022-11-11T02:05:12;36.38;;;17.40;;
42246;SDS011;27913;42.722;23.268;2022-11-11T02:08:18;33.35;;;16.13;;
42246;SDS011;27913;42.722;23.268;2022-11-11T02:10:58;35.40;;;16.88;;
42246;SDS011;27913;42.722;23.268;2022-11-11T02:13:28;37.42;;;18.35;;
42246;SDS011;27913;42.722;23.268;2022-11-11T02:16:13;40.05;;;19.85;;
42246;SDS011;27913;42.722;23.268;2022-11-11T02:18:39;37.65;;;20.17;;
42246;SDS011;27913;42.722;23.268;2022-11-11T02:21:05;39.00;;;19.63;;
42246;SDS011;27913;42.722;23.268;2022-11-11T02:23:38;41.00;;;18.83;;
42246;SDS011;27913;42.722;23.268;2022-11-11T02:26:10;38.40;;;17.60;;
42246;SDS011;27913;42.722;23.268;2022-11-11T02:28:41;34.17;;;16.15;;
42246;SDS011;27913;42.722;23.268;2022-11-11T02:31:07;43.47;;;18.42;;
42246;SDS011;27913;42.722;23.268;2022-11-11T02:33:33;38.15;;;17.38;;
42246;SDS011;27913;42.722;23.268;2022-11-11T02:35:59;38.42;;;18.30;;
42246;SDS011;27913;42.722;23.268;2022-11-11T02:38:26;36.13;;;17.55;;
42246;SDS011;27913;42.722;23.268;2022-11-11T02:40:53;38.22;;;18.15;;
42246;SDS011;27913;42.722;23.268;2022-11-11T02:43:37;37.95;;;17.45;;
42246;SDS011;27913;42.722;23.268;2022-11-11T02:46:03;33.97;;;16.55;;
42246;SDS011;27913;42.722;23.268;2022-11-11T02:48:29;36.35;;;16.63;;
42246;SDS011;27913;42.722;23.268;2022-11-11T02:50:55;33.97;;;16.67;;
42246;SDS011;27913;42.722;23.268;2022-11-11T02:53:21;38.75;;;16.48;;
42246;SDS011;27913;42.722;23.268;2022-11-11T02:55:47;37.53;;;16.73;;
42246;SDS011;27913;42.722;23.268;2022-11-11T02:58:13;31.67;;;15.75;;
42246;SDS011;27913;42.722;23.268;2022-11-11T03:00:39;36.63;;;17.75;;
42246;SDS011;27913;42.722;23.268;2022-11-11T03:03:06;34.72;;;15.23;;
42246;SDS011;27913;42.722;23.268;2022-11-11T03:05:32;35.95;;;15.60;;
42246;SDS011;27913;42.722;23.268;2022-11-11T03:07:58;32.90;;;15.10;;
42246;SDS011;27913;42.722;23.268;2022-11-11T03:10:23;37.28;;;16.33;;
42246;SDS011;27913;42.722;23.268;2022-11-11T03:12:49;34.15;;;15.18;;
42246;SDS011;27913;42.722;23.268;2022-11-11T03:15:14;36.88;;;15.95;;
42246;SDS011;27913;42.722;23.268;2022-11-11T03:17:40;37.70;;;16.63;;
42246;SDS011;27913;42.722;23.268;2022-11-11T03:23:10;40.83;;;18.05;;
42246;SDS011;27913;42.722;23.268;2022-11-11T03:25:37;34.92;;;16.50;;
42246;SDS011;27913;42.722;23.268;2022-11-11T03:30:34;36.63;;;16.70;;
42246;SDS011;27913;42.722;23.268;2022-11-11T03:33:00;35.78;;;16.77;;
42246;SDS011;27913;42.722;23.268;2022-11-11T03:35:27;36.33;;;17.58;;
42246;SDS011;27913;42.722;23.268;2022-11-11T03:37:53;35.20;;;16.80;;
42246;SDS011;27913;42.722;23.268;2022-11-11T03:40:36;35.30;;;18.38;;
42246;SDS011;27913;42.722;23.268;2022-11-11T03:43:02;39.78;;;17.77;;
42246;SDS011;27913;42.722;23.268;2022-11-11T03:45:28;35.85;;;16.58;;
42246;SDS011;27913;42.722;23.268;2022-11-11T03:47:54;35.00;;;17.35;;
42246;SDS011;27913;42.722;23.268;2022-11-11T03:50:20;36.97;;;18.23;;
42246;SDS011;27913;42.722;23.268;2022-11-11T03:52:46;34.50;;;16.77;;
42246;SDS011;27913;42.722;23.268;2022-11-11T03:55:11;33.25;;;16.20;;
42246;SDS011;27913;42.722;23.268;2022-11-11T03:57:40;33.53;;;15.73;;
42246;SDS011;27913;42.722;23.268;2022-11-11T04:00:08;42.17;;;17.73;;
42246;SDS011;27913;42.722;23.268;2022-11-11T04:02:34;42.67;;;19.75;;
42246;SDS011;27913;42.722;23.268;2022-11-11T04:05:18;39.95;;;17.35;;
42246;SDS011;27913;42.722;23.268;2022-11-11T04:08:03;38.80;;;17.25;;
42246;SDS011;27913;42.722;23.268;2022-11-11T04:10:47;39.08;;;17.88;;
42246;SDS011;27913;42.722;23.268;2022-11-11T04:13:12;37.92;;;16.83;;
42246;SDS011;27913;42.722;23.268;2022-11-11T04:15:56;32.00;;;17.15;;
42246;SDS011;27913;42.722;23.268;2022-11-11T04:18:31;37.53;;;17.88;;
42246;SDS011;27913;42.722;23.268;2022-11-11T04:21:16;34.08;;;15.73;;
42246;SDS011;27913;42.722;23.268;2022-11-11T04:24:00;37.00;;;18.33;;
42246;SDS011;27913;42.722;23.268;2022-11-11T04:26:26;29.30;;;13.30;;
42246;SDS011;27913;42.722;23.268;2022-11-11T04:28:51;36.65;;;17.90;;
42246;SDS011;27913;42.722;23.268;2022-11-11T04:31:35;34.53;;;15.88;;
42246;SDS011;27913;42.722;23.268;2022-11-11T04:34:21;38.45;;;18.98;;
42246;SDS011;27913;42.722;23.268;2022-11-11T04:36:46;39.30;;;18.35;;
42246;SDS011;27913;42.722;23.268;2022-11-11T04:39:12;34.25;;;16.67;;
42246;SDS011;27913;42.722;23.268;2022-11-11T04:41:56;40.58;;;23.88;;
42246;SDS011;27913;42.722;23.268;2022-11-11T04:44:22;40.47;;;20.45;;
42246;SDS011;27913;42.722;23.268;2022-11-11T04:47:06;37.40;;;18.67;;
42246;SDS011;27913;42.722;23.268;2022-11-11T04:49:31;39.58;;;19.48;;
42246;SDS011;27913;42.722;23.268;2022-11-11T04:51:57;35.65;;;17.45;;
42246;SDS011;27913;42.722;23.268;2022-11-11T04:54:41;39.13;;;19.55;;
42246;SDS011;27913;42.722;23.268;2022-11-11T04:57:25;42.17;;;20.95;;
42246;SDS011;27913;42.722;23.268;2022-11-11T04:59:50;37.47;;;18.00;;
42246;SDS011;27913;42.722;23.268;2022-11-11T05:02:16;32.90;;;16.55;;
42246;SDS011;27913;42.722;23.268;2022-11-11T05:05:10;43.97;;;19.23;;
42246;SDS011;27913;42.722;23.268;2022-11-11T05:07:37;36.88;;;17.40;;
42246;SDS011;27913;42.722;23.268;2022-11-11T05:10:21;33.65;;;18.55;;
42246;SDS011;27913;42.722;23.268;2022-11-11T05:12:46;33.00;;;16.35;;
42246;SDS011;27913;42.722;23.268;2022-11-11T05:15:12;35.00;;;16.63;;
42246;SDS011;27913;42.722;23.268;2022-11-11T05:17:55;30.02;;;15.32;;
42246;SDS011;27913;42.722;23.268;2022-11-11T05:20:39;31.08;;;15.82;;
42246;SDS011;27913;42.722;23.268;2022-11-11T05:23:23;32.55;;;15.85;;
42246;SDS011;27913;42.722;23.268;2022-11-11T05:26:09;29.55;;;14.05;;
42246;SDS011;27913;42.722;23.268;2022-11-11T05:28:34;34.42;;;15.57;;
42246;SDS011;27913;42.722;23.268;2022-11-11T05:31:00;25.50;;;12.60;;
42246;SDS011;27913;42.722;23.268;2022-11-11T05:33:25;29.02;;;12.57;;
42246;SDS011;27913;42.722;23.268;2022-11-11T05:35:51;26.05;;;12.13;;
42246;SDS011;27913;42.722;23.268;2022-11-11T05:38:16;28.40;;;14.23;;
42246;SDS011;27913;42.722;23.268;2022-11-11T05:40:44;19.67;;;9.60;;
42246;SDS011;27913;42.722;23.268;2022-11-11T05:43:10;28.00;;;12.82;;
42246;SDS011;27913;42.722;23.268;2022-11-11T05:45:35;21.65;;;10.55;;
42246;SDS011;27913;42.722;23.268;2022-11-11T05:48:01;19.80;;;10.18;;
42246;SDS011;27913;42.722;23.268;2022-11-11T05:50:27;24.42;;;11.70;;
42246;SDS011;27913;42.722;23.268;2022-11-11T05:52:52;30.63;;;11.52;;
42246;SDS011;27913;42.722;23.268;2022-11-11T05:55:20;13.70;;;5.68;;
42246;SDS011;27913;42.722;23.268;2022-11-11T05:57:45;23.75;;;12.18;;
42246;SDS011;27913;42.722;23.268;2022-11-11T06:00:11;25.77;;;11.90;;
42246;SDS011;27913;42.722;23.268;2022-11-11T06:02:37;12.25;;;5.45;;
42246;SDS011;27913;42.722;23.268;2022-11-11T06:05:03;18.80;;;8.18;;
42246;SDS011;27913;42.722;23.268;2022-11-11T06:07:28;26.15;;;12.25;;
42246;SDS011;27913;42.722;23.268;2022-11-11T06:09:55;22.88;;;10.20;;
42246;SDS011;27913;42.722;23.268;2022-11-11T06:12:41;24.85;;;11.98;;
42246;SDS011;27913;42.722;23.268;2022-11-11T06:15:25;26.63;;;11.32;;
42246;SDS011;27913;42.722;23.268;2022-11-11T06:17:51;28.45;;;13.60;;
42246;SDS011;27913;42.722;23.268;2022-11-11T06:20:17;30.30;;;13.43;;
42246;SDS011;27913;42.722;23.268;2022-11-11T06:22:42;33.92;;;13.65;;
42246;SDS011;27913;42.722;23.268;2022-11-11T06:25:20;26.17;;;11.27;;
42246;SDS011;27913;42.722;23.268;2022-11-11T06:28:05;26.40;;;12.07;;
42246;SDS011;27913;42.722;23.268;2022-11-11T06:30:30;25.88;;;12.35;;
42246;SDS011;27913;42.722;23.268;2022-11-11T06:32:56;27.63;;;13.15;;
42246;SDS011;27913;42.722;23.268;2022-11-11T06:35:21;31.20;;;13.75;;
42246;SDS011;27913;42.722;23.268;2022-11-11T06:37:47;32.13;;;14.23;;
42246;SDS011;27913;42.722;23.268;2022-11-11T06:40:12;34.35;;;13.43;;
42246;SDS011;27913;42.722;23.268;2022-11-11T06:42:38;28.40;;;12.98;;
42246;SDS011;27913;42.722;23.268;2022-11-11T06:45:04;30.25;;;12.18;;
42246;SDS011;27913;42.722;23.268;2022-11-11T06:47:29;32.13;;;13.57;;
42246;SDS011;27913;42.722;23.268;2022-11-11T06:49:55;29.92;;;12.75;;
42246;SDS011;27913;42.722;23.268;2022-11-11T06:52:20;26.00;;;11.40;;
42246;SDS011;27913;42.722;23.268;2022-11-11T06:54:46;23.33;;;11.18;;
42246;SDS011;27913;42.722;23.268;2022-11-11T06:57:11;28.98;;;12.25;;
42246;SDS011;27913;42.722;23.268;2022-11-11T06:59:37;28.27;;;12.52;;
42246;SDS011;27913;42.722;23.268;2022-11-11T07:02:02;24.83;;;13.02;;
42246;SDS011;27913;42.722;23.268;2022-11-11T07:04:28;30.02;;;13.13;;
42246;SDS011;27913;42.722;23.268;2022-11-11T07:06:53;25.95;;;10.95;;
42246;SDS011;27913;42.722;23.268;2022-11-11T07:09:19;26.50;;;12.43;;
42246;SDS011;27913;42.722;23.268;2022-11-11T07:11:44;37.33;;;13.75;;
42246;SDS011;27913;42.722;23.268;2022-11-11T07:14:10;31.45;;;13.20;;
42246;SDS011;27913;42.722;23.268;2022-11-11T07:16:35;25.70;;;10.23;;
42246;SDS011;27913;42.722;23.268;2022-11-11T07:19:01;21.15;;;9.13;;
42246;SDS011;27913;42.722;23.268;2022-11-11T07:21:26;26.48;;;12.30;;
42246;SDS011;27913;42.722;23.268;2022-11-11T07:23:51;27.95;;;11.68;;
42246;SDS011;27913;42.722;23.268;2022-11-11T07:26:17;29.52;;;11.77;;
42246;SDS011;27913;42.722;23.268;2022-11-11T07:28:42;26.40;;;11.05;;
42246;SDS011;27913;42.722;23.268;2022-11-11T07:31:08;30.42;;;12.20;;
42246;SDS011;27913;42.722;23.268;2022-11-11T07:33:33;17.75;;;8.27;;
42246;SDS011;27913;42.722;23.268;2022-11-11T07:35:59;15.35;;;6.03;;
42246;SDS011;27913;42.722;23.268;2022-11-11T07:38:24;14.75;;;6.70;;
42246;SDS011;27913;42.722;23.268;2022-11-11T07:40:50;20.08;;;7.97;;
42246;SDS011;27913;42.722;23.268;2022-11-11T07:43:16;24.60;;;10.98;;
42246;SDS011;27913;42.722;23.268;2022-11-11T07:45:41;19.58;;;8.98;;
42246;SDS011;27913;42.722;23.268;2022-11-11T07:48:07;24.33;;;10.82;;
42246;SDS011;27913;42.722;23.268;2022-11-11T07:50:32;26.00;;;11.77;;
42246;SDS011;27913;42.722;23.268;2022-11-11T07:52:58;18.98;;;8.05;;
42246;SDS011;27913;42.722;23.268;2022-11-11T07:55:23;16.83;;;7.05;;
42246;SDS011;27913;42.722;23.268;2022-11-11T07:57:52;19.08;;;8.05;;
42246;SDS011;27913;42.722;23.268;2022-11-11T08:00:17;11.90;;;4.53;;
42246;SDS011;27913;42.722;23.268;2022-11-11T08:02:46;24.27;;;10.73;;
42246;SDS011;27913;42.722;23.268;2022-11-11T08:05:13;13.25;;;5.82;;
42246;SDS011;27913;42.722;23.268;2022-11-11T08:07:38;23.80;;;10.20;;
42246;SDS011;27913;42.722;23.268;2022-11-11T08:10:04;30.25;;;10.43;;
42246;SDS011;27913;42.722;23.268;2022-11-11T08:12:30;19.08;;;9.10;;
42246;SDS011;27913;42.722;23.268;2022-11-11T08:15:14;23.48;;;11.05;;
42246;SDS011;27913;42.722;23.268;2022-11-11T08:17:39;22.15;;;9.55;;
42246;SDS011;27913;42.722;23.268;2022-11-11T08:20:05;23.55;;;10.32;;
42246;SDS011;27913;42.722;23.268;2022-11-11T08:22:40;22.67;;;8.95;;
42246;SDS011;27913;42.722;23.268;2022-11-11T08:25:07;25.17;;;9.65;;
42246;SDS011;27913;42.722;23.268;2022-11-11T08:27:34;21.10;;;9.05;;
42246;SDS011;27913;42.722;23.268;2022-11-11T08:30:00;20.98;;;9.23;;
42246;SDS011;27913;42.722;23.268;2022-11-11T08:32:26;21.63;;;8.93;;
42246;SDS011;27913;42.722;23.268;2022-11-11T08:34:51;23.08;;;8.82;;
42246;SDS011;27913;42.722;23.268;2022-11-11T08:37:17;21.60;;;9.07;;
42246;SDS011;27913;42.722;23.268;2022-11-11T08:39:42;19.77;;;8.38;;
42246;SDS011;27913;42.722;23.268;2022-11-11T08:42:08;19.42;;;8.70;;
42246;SDS011;27913;42.722;23.268;2022-11-11T08:44:33;20.10;;;8.88;;
42246;SDS011;27913;42.722;23.268;2022-11-11T08:46:59;18.50;;;8.10;;
42246;SDS011;27913;42.722;23.268;2022-11-11T08:49:24;19.13;;;7.72;;
42246;SDS011;27913;42.722;23.268;2022-11-11T08:51:50;19.27;;;7.82;;
42246;SDS011;27913;42.722;23.268;2022-11-11T08:54:15;16.17;;;7.47;;
42246;SDS011;27913;42.722;23.268;2022-11-11T08:56:41;17.08;;;6.55;;
42246;SDS011;27913;42.722;23.268;2022-11-11T08:59:07;8.25;;;3.30;;
42246;SDS011;27913;42.722;23.268;2022-11-11T09:01:34;4.10;;;1.98;;
42246;SDS011;27913;42.722;23.268;2022-11-11T09:04:00;10.30;;;4.55;;
42246;SDS011;27913;42.722;23.268;2022-11-11T09:06:26;11.48;;;5.85;;
42246;SDS011;27913;42.722;23.268;2022-11-11T09:08:52;13.20;;;6.22;;
42246;SDS011;27913;42.722;23.268;2022-11-11T09:11:18;16.38;;;6.65;;
42246;SDS011;27913;42.722;23.268;2022-11-11T09:13:45;11.20;;;3.40;;
42246;SDS011;27913;42.722;23.268;2022-11-11T09:16:11;14.38;;;6.35;;
42246;SDS011;27913;42.722;23.268;2022-11-11T09:18:36;12.73;;;5.72;;
42246;SDS011;27913;42.722;23.268;2022-11-11T09:21:03;12.07;;;5.63;;
42246;SDS011;27913;42.722;23.268;2022-11-11T09:23:28;12.50;;;5.63;;
42246;SDS011;27913;42.722;23.268;2022-11-11T09:25:54;9.52;;;3.80;;
42246;SDS011;27913;42.722;23.268;2022-11-11T09:28:22;8.05;;;3.72;;
42246;SDS011;27913;42.722;23.268;2022-11-11T09:30:48;9.25;;;4.18;;
42246;SDS011;27913;42.722;23.268;2022-11-11T09:33:13;10.50;;;5.30;;
42246;SDS011;27913;42.722;23.268;2022-11-11T09:35:42;12.43;;;3.10;;
42246;SDS011;27913;42.722;23.268;2022-11-11T09:38:08;14.80;;;5.20;;
42246;SDS011;27913;42.722;23.268;2022-11-11T09:43:41;9.68;;;4.32;;
42246;SDS011;27913;42.722;23.268;2022-11-11T09:46:10;9.25;;;4.15;;
42246;SDS011;27913;42.722;23.268;2022-11-11T09:48:49;13.13;;;5.97;;
42246;SDS011;27913;42.722;23.268;2022-11-11T09:51:40;10.48;;;3.75;;
42246;SDS011;27913;42.722;23.268;2022-11-11T09:54:22;7.32;;;3.28;;
42246;SDS011;27913;42.722;23.268;2022-11-11T09:56:58;12.80;;;4.43;;
42246;SDS011;27913;42.722;23.268;2022-11-11T09:59:29;6.35;;;3.20;;
42246;SDS011;27913;42.722;23.268;2022-11-11T10:02:08;5.25;;;2.13;;
42246;SDS011;27913;42.722;23.268;2022-11-11T10:04:51;7.88;;;3.10;;
42246;SDS011;27913;42.722;23.268;2022-11-11T10:10:14;12.25;;;5.65;;
42246;SDS011;27913;42.722;23.268;2022-11-11T10:12:43;11.13;;;5.38;;
42246;SDS011;27913;42.722;23.268;2022-11-11T10:15:13;11.65;;;5.95;;
42246;SDS011;27913;42.722;23.268;2022-11-11T10:20:35;6.25;;;2.75;;
42246;SDS011;27913;42.722;23.268;2022-11-11T10:23:10;12.93;;;5.80;;
42246;SDS011;27913;42.722;23.268;2022-11-11T10:25:41;10.68;;;5.28;;
42246;SDS011;27913;42.722;23.268;2022-11-11T10:28:16;9.40;;;4.78;;
42246;SDS011;27913;42.722;23.268;2022-11-11T10:30:45;7.38;;;3.45;;
42246;SDS011;27913;42.722;23.268;2022-11-11T10:33:14;12.18;;;4.93;;
42246;SDS011;27913;42.722;23.268;2022-11-11T10:35:43;5.22;;;2.38;;
42246;SDS011;27913;42.722;23.268;2022-11-11T10:38:16;9.23;;;4.20;;
42246;SDS011;27913;42.722;23.268;2022-11-11T10:40:53;8.15;;;4.40;;
42246;SDS011;27913;42.722;23.268;2022-11-11T10:43:22;9.60;;;5.00;;
42246;SDS011;27913;42.722;23.268;2022-11-11T10:45:54;8.25;;;3.75;;
42246;SDS011;27913;42.722;23.268;2022-11-11T10:51:14;13.43;;;4.30;;
42246;SDS011;27913;42.722;23.268;2022-11-11T10:53:50;10.82;;;4.65;;
42246;SDS011;27913;42.722;23.268;2022-11-11T10:56:33;8.20;;;3.67;;
42246;SDS011;27913;42.722;23.268;2022-11-11T11:01:56;7.47;;;2.80;;
42246;SDS011;27913;42.722;23.268;2022-11-11T11:04:43;11.07;;;4.70;;
42246;SDS011;27913;42.722;23.268;2022-11-11T11:07:14;9.18;;;4.10;;
42246;SDS011;27913;42.722;23.268;2022-11-11T11:09:53;9.68;;;4.53;;
42246;SDS011;27913;42.722;23.268;2022-11-11T11:15:16;7.78;;;3.03;;
42246;SDS011;27913;42.722;23.268;2022-11-11T11:17:55;6.95;;;3.33;;
42246;SDS011;27913;42.722;23.268;2022-11-11T11:20:25;9.38;;;3.72;;
42246;SDS011;27913;42.722;23.268;2022-11-11T11:25:18;3.85;;;1.95;;
42246;SDS011;27913;42.722;23.268;2022-11-11T11:27:45;7.75;;;3.63;;
42246;SDS011;27913;42.722;23.268;2022-11-11T11:33:03;8.98;;;3.67;;
42246;SDS011;27913;42.722;23.268;2022-11-11T11:35:37;8.23;;;3.30;;
42246;SDS011;27913;42.722;23.268;2022-11-11T11:38:05;4.85;;;1.80;;
42246;SDS011;27913;42.722;23.268;2022-11-11T11:40:46;4.93;;;2.55;;
42246;SDS011;27913;42.722;23.268;2022-11-11T11:43:24;5.90;;;2.30;;
42246;SDS011;27913;42.722;23.268;2022-11-11T11:46:45;2.78;;;1.23;;
42246;SDS011;27913;42.722;23.268;2022-11-11T11:49:00;4.53;;;1.65;;
42246;SDS011;27913;42.722;23.268;2022-11-11T11:57:22;2.50;;;1.15;;
42246;SDS011;27913;42.722;23.268;2022-11-11T12:05:18;9.82;;;3.38;;
42246;SDS011;27913;42.722;23.268;2022-11-11T12:19:33;6.43;;;2.53;;
42246;SDS011;27913;42.722;23.268;2022-11-11T12:24:59;8.07;;;2.92;;
42246;SDS011;27913;42.722;23.268;2022-11-11T12:27:53;8.65;;;3.42;;
42246;SDS011;27913;42.722;23.268;2022-11-11T12:30:20;7.45;;;2.67;;
42246;SDS011;27913;42.722;23.268;2022-11-11T12:33:05;7.72;;;3.15;;
42246;SDS011;27913;42.722;23.268;2022-11-11T12:36:12;7.45;;;3.28;;
42246;SDS011;27913;42.722;23.268;2022-11-11T12:41:23;5.75;;;2.05;;
42246;SDS011;27913;42.722;23.268;2022-11-11T12:44:05;3.72;;;1.50;;
42246;SDS011;27913;42.722;23.268;2022-11-11T12:51:57;6.20;;;3.05;;
42246;SDS011;27913;42.722;23.268;2022-11-11T12:54:50;6.28;;;2.65;;
42246;SDS011;27913;42.722;23.268;2022-11-11T12:58:24;2.95;;;1.00;;
42246;SDS011;27913;42.722;23.268;2022-11-11T13:00:50;7.60;;;3.45;;
42246;SDS011;27913;42.722;23.268;2022-11-11T13:03:31;10.40;;;3.40;;
42246;SDS011;27913;42.722;23.268;2022-11-11T13:06:16;2.97;;;1.52;;
42246;SDS011;27913;42.722;23.268;2022-11-11T13:11:34;9.30;;;3.78;;
42246;SDS011;27913;42.722;23.268;2022-11-11T13:17:00;4.30;;;1.65;;
42246;SDS011;27913;42.722;23.268;2022-11-11T13:19:33;6.28;;;3.00;;
42246;SDS011;27913;42.722;23.268;2022-11-11T13:22:14;12.57;;;3.70;;
42246;SDS011;27913;42.722;23.268;2022-11-11T13:24:42;9.68;;;4.22;;
42246;SDS011;27913;42.722;23.268;2022-11-11T13:27:13;8.52;;;3.13;;
42246;SDS011;27913;42.722;23.268;2022-11-11T13:32:08;8.27;;;3.17;;
42246;SDS011;27913;42.722;23.268;2022-11-11T13:34:38;6.03;;;2.10;;
42246;SDS011;27913;42.722;23.268;2022-11-11T13:37:05;3.10;;;1.67;;
42246;SDS011;27913;42.722;23.268;2022-11-11T13:39:35;5.88;;;2.03;;
42246;SDS011;27913;42.722;23.268;2022-11-11T13:42:10;9.23;;;3.47;;
42246;SDS011;27913;42.722;23.268;2022-11-11T13:44:53;4.03;;;1.75;;
42246;SDS011;27913;42.722;23.268;2022-11-11T13:47:28;8.73;;;2.70;;
42246;SDS011;27913;42.722;23.268;2022-11-11T13:50:23;8.20;;;2.83;;
42246;SDS011;27913;42.722;23.268;2022-11-11T13:55:53;7.68;;;2.17;;
42246;SDS011;27913;42.722;23.268;2022-11-11T13:58:31;7.88;;;3.00;;
42246;SDS011;27913;42.722;23.268;2022-11-11T14:01:04;4.40;;;2.00;;
42246;SDS011;27913;42.722;23.268;2022-11-11T14:03:33;8.57;;;3.20;;
42246;SDS011;27913;42.722;23.268;2022-11-11T14:13:48;10.70;;;4.65;;
42246;SDS011;27913;42.722;23.268;2022-11-11T14:19:12;9.57;;;3.10;;
42246;SDS011;27913;42.722;23.268;2022-11-11T14:29:40;11.98;;;4.63;;
42246;SDS011;27913;42.722;23.268;2022-11-11T14:40:08;3.17;;;1.25;;
42246;SDS011;27913;42.722;23.268;2022-11-11T14:54:06;7.32;;;4.15;;
42246;SDS011;27913;42.722;23.268;2022-11-11T14:56:42;20.42;;;10.20;;
42246;SDS011;27913;42.722;23.268;2022-11-11T14:59:08;25.42;;;10.07;;
42246;SDS011;27913;42.722;23.268;2022-11-11T15:01:38;17.90;;;7.43;;
42246;SDS011;27913;42.722;23.268;2022-11-11T15:04:03;9.80;;;4.25;;
42246;SDS011;27913;42.722;23.268;2022-11-11T15:06:35;10.98;;;4.68;;
42246;SDS011;27913;42.722;23.268;2022-11-11T15:11:57;10.20;;;5.03;;
42246;SDS011;27913;42.722;23.268;2022-11-11T15:20:20;12.60;;;5.45;;
42246;SDS011;27913;42.722;23.268;2022-11-11T15:26:00;11.75;;;5.38;;
42246;SDS011;27913;42.722;23.268;2022-11-11T15:39:41;16.35;;;7.90;;
42246;SDS011;27913;42.722;23.268;2022-11-11T15:42:11;14.10;;;5.68;;
42246;SDS011;27913;42.722;23.268;2022-11-11T15:44:45;6.63;;;3.47;;
42246;SDS011;27913;42.722;23.268;2022-11-11T15:47:11;18.38;;;8.32;;
42246;SDS011;27913;42.722;23.268;2022-11-11T15:49:39;15.27;;;5.43;;
42246;SDS011;27913;42.722;23.268;2022-11-11T15:52:30;19.77;;;7.97;;
42246;SDS011;27913;42.722;23.268;2022-11-11T15:54:54;17.50;;;6.45;;
42246;SDS011;27913;42.722;23.268;2022-11-11T15:59:54;8.20;;;3.63;;
42246;SDS011;27913;42.722;23.268;2022-11-11T16:02:22;21.38;;;9.43;;
42246;SDS011;27913;42.722;23.268;2022-11-11T16:04:54;22.45;;;8.48;;
42246;SDS011;27913;42.722;23.268;2022-11-11T16:07:23;22.38;;;8.52;;
42246;SDS011;27913;42.722;23.268;2022-11-11T16:09:52;17.58;;;8.48;;
42246;SDS011;27913;42.722;23.268;2022-11-11T16:12:24;14.43;;;5.95;;
42246;SDS011;27913;42.722;23.268;2022-11-11T16:14:57;20.85;;;9.20;;
42246;SDS011;27913;42.722;23.268;2022-11-11T16:17:28;18.50;;;8.33;;
42246;SDS011;27913;42.722;23.268;2022-11-11T16:22:27;21.85;;;8.32;;
42246;SDS011;27913;42.722;23.268;2022-11-11T16:24:57;15.70;;;7.38;;
42246;SDS011;27913;42.722;23.268;2022-11-11T16:27:32;15.57;;;6.05;;
42246;SDS011;27913;42.722;23.268;2022-11-11T16:30:15;23.77;;;8.65;;
42246;SDS011;27913;42.722;23.268;2022-11-11T16:33:01;15.02;;;6.90;;
42246;SDS011;27913;42.722;23.268;2022-11-11T16:35:37;17.45;;;7.80;;
42246;SDS011;27913;42.722;23.268;2022-11-11T16:38:04;16.48;;;7.38;;
42246;SDS011;27913;42.722;23.268;2022-11-11T16:48:54;17.52;;;7.28;;
42246;SDS011;27913;42.722;23.268;2022-11-11T16:51:36;16.10;;;6.93;;
42246;SDS011;27913;42.722;23.268;2022-11-11T16:54:21;20.02;;;8.70;;
42246;SDS011;27913;42.722;23.268;2022-11-11T16:56:55;16.77;;;7.70;;
42246;SDS011;27913;42.722;23.268;2022-11-11T16:59:26;22.02;;;9.50;;
42246;SDS011;27913;42.722;23.268;2022-11-11T17:02:18;23.90;;;9.05;;
42246;SDS011;27913;42.722;23.268;2022-11-11T17:04:46;23.45;;;9.13;;
42246;SDS011;27913;42.722;23.268;2022-11-11T17:07:33;18.48;;;6.70;;
42246;SDS011;27913;42.722;23.268;2022-11-11T17:12:42;20.50;;;8.55;;
42246;SDS011;27913;42.722;23.268;2022-11-11T17:15:12;26.90;;;9.90;;
42246;SDS011;27913;42.722;23.268;2022-11-11T17:17:40;31.17;;;9.32;;
42246;SDS011;27913;42.722;23.268;2022-11-11T17:20:08;20.42;;;7.15;;